Terminal Aerodrome Forecast
Issued by NWS Charleston, WV

Home | Current Version | Previous Version | Text Only | Print | Product List | Glossary On
Versions: 1 2 3 4 5 6 7 8 9 10 11 12 13 14 15 16 17 18 19 20 21 22 23 24 25 26 27 28 29 30
645
FTUS41 KRLX 160841 AAD
TAFBKW
TAF AMD
KBKW 160841Z 1609/1706 28009KT P6SM BKN035
      TEMPO 1609/1613 BKN025
     FM161600 25009KT P6SM SCT150
     FM170100 23005KT P6SM SKC=

USA.gov is the U.S. government's official web portal to all federal, state and local government web resources and services.